Terminal Aerodrome Forecast
Issued by NWS Jacksonville, FL

Home | Current Version | Previous Version | Text Only | Print | Product List | Glossary On
Versions: 1 2 3 4 5 6 7 8 9 10 11 12 13 14 15 16 17 18 19 20 21 22 23
000
FTUS42 KJAX 162330
TAFJAX
TAF
KJAX 162330Z 1700/1724 14009KT P6SM SCT050 SCT150
     FM170400 25004KT P6SM FEW250
     FM171500 20008KT P6SM SCT030 SCT250 PROB30 1718/1723 TSRA
      SCT035 BKN050CB=

USA.gov is the U.S. government's official web portal to all federal, state and local government web resources and services.